Overview Statistics Trail Chart Weather Telemetry Raw packets
 

This is the latest recevied weather packets stored in our database for station/object KO6HRZ. If no packets are shown the sender has not sent any weather packets the latest 10 day(s).

<< 12 13 14 15 16 17 18 >>
Time Temp. Humidity Pressure Rain* Wind** Luminosity Snow
1788485548 21.11° C 75% 1010 hPa 0 mm - 58 W/m² -
1788484942 21.11° C 75% 1010 hPa 0 mm - 61 W/m² -
1788484338 21.11° C 74% 1010.2 hPa 0 mm - 64 W/m² -
1788483735 21.67° C 74% 1010 hPa 0 mm - 67 W/m² -
1788483132 21.67° C 72% 1010.3 hPa 0 mm - 78 W/m² -
1788482527 22.22° C 71% 1010.1 hPa 0 mm - 111 W/m² -
1788481924 21.67° C 71% 1010 hPa 0 mm - 96 W/m² -
1788481321 22.22° C 70% 1010 hPa 0 mm - 94 W/m² -
1788480721 22.78° C 70% 1010 hPa 0 mm - 109 W/m² -
1788480118 22.78° C 68% 1009.9 hPa 0 mm - 129 W/m² -
1788479514 23.33° C 67% 1010 hPa 0 mm - 170 W/m² -
1788478910 23.89° C 65% 1010.1 hPa 0 mm - 229 W/m² -
1788478308 23.89° C 65% 1010.4 hPa 0 mm - 218 W/m² -
1788477703 23.89° C 64% 1010.4 hPa 0 mm - 204 W/m² -
1788477103 25° C 62% 1010.2 hPa 0 mm - 241 W/m² -
1788476498 25° C 62% 1010.4 hPa 0 mm - 357 W/m² -
1788475897 25.56° C 59% 1010.5 hPa 0 mm - 327 W/m² -
1788475295 25.56° C 59% 1010.5 hPa 0 mm - 417 W/m² -
1788474693 26.11° C 59% 1010.7 hPa 0 mm - 491 W/m² -
1788474093 25° C 60% 1010.9 hPa 0 mm - 459 W/m² -
1788473493 24.44° C 62% 1010.9 hPa 0 mm - 303 W/m² -
1788472892 25° C 61% 1011.1 hPa 0 mm - 233 W/m² -
1788472292 25.56° C 59% 1011.1 hPa 0 mm - 353 W/m² -
1788471692 26.11° C 57% 1011.3 hPa 0 mm - 373 W/m² -
1788471088 25.56° C 58% 1011.2 hPa 0 mm - 353 W/m² -

* Rain latest hour (hover to see other rain measurements)
** Current wind speed in m/s (hover to see current wind gust speed)